Time;durP1;ratioP1;P1;durP2;ratioP2;P2;SDS_P1;SDS_P2;PMS_P1;PMS_P2;Temp;Humidity;BMP_temperature;BMP_pressure;BME280_temperature;BME280_humidity;BME280_pressure;Samples;Min_cycle;Max_cycle;Signal;HPM_P1;HPM_P2
2022/09/11 00:00:42;;;;;;;50.63;35.70;;;;;;;;;;5149526;27;20121;-68
2022/09/11 00:03:08;;;;;;;51.45;37.22;;;;;;;;;;5132443;27;20497;-67
2022/09/11 00:05:40;;;;;;;47.53;34.65;;;;;;;;;;5151387;27;20050;-67
2022/09/11 00:08:08;;;;;;;50.63;35.38;;;;;;;;;;5147395;27;20114;-67
2022/09/11 00:10:39;;;;;;;50.78;34.90;;;;;;;;;;5149371;27;20137;-67
2022/09/11 00:13:13;;;;;;;54.58;36.63;;;;;;;;;;5150128;27;20054;-67
2022/09/11 00:15:44;;;;;;;52.47;36.00;;;;;;;;;;5150252;27;20466;-67
2022/09/11 00:18:14;;;;;;;52.72;36.97;;;;;;;;;;5129881;27;20451;-67
2022/09/11 00:20:48;;;;;;;48.90;35.28;;;;;;;;;;5151772;27;20485;-67
2022/09/11 00:23:16;;;;;;;54.45;36.20;;;;;;;;;;5149679;27;20456;-67
2022/09/11 00:25:43;;;;;;;49.88;34.50;;;;;;;;;;5131188;27;20053;-69
2022/09/11 00:28:16;;;;;;;48.38;34.92;;;;;;;;;;5130078;27;20396;-67
2022/09/11 00:30:43;;;;;;;48.03;34.28;;;;;;;;;;5128500;27;20161;-68
2022/09/11 00:33:13;;;;;;;50.03;34.42;;;;;;;;;;5150231;27;20047;-67
2022/09/11 00:35:40;;;;;;;46.70;33.90;;;;;;;;;;5146328;27;20065;-67
2022/09/11 00:38:10;;;;;;;49.50;35.00;;;;;;;;;;5149959;27;20065;-66
2022/09/11 00:40:46;;;;;;;45.92;32.75;;;;;;;;;;5149750;27;20193;-66
2022/09/11 00:43:13;;;;;;;52.78;34.88;;;;;;;;;;5150294;27;20462;-66
2022/09/11 00:45:40;;;;;;;45.28;32.95;;;;;;;;;;5150456;27;20065;-66
2022/09/11 00:48:07;;;;;;;48.42;33.30;;;;;;;;;;5129523;27;20161;-66
2022/09/11 00:50:36;;;;;;;46.70;31.80;;;;;;;;;;5140588;27;20471;-66
2022/09/11 00:53:06;;;;;;;48.30;32.75;;;;;;;;;;5149592;27;20179;-66
2022/09/11 00:55:34;;;;;;;43.80;31.90;;;;;;;;;;5148828;27;20042;-66
2022/09/11 00:58:11;;;;;;;47.63;33.35;;;;;;;;;;5149237;27;20054;-66
2022/09/11 01:00:38;;;;;;;42.38;31.63;;;;;;;;;;5145346;27;20039;-66
2022/09/11 01:03:05;;;;;;;42.53;30.30;;;;;;;;;;5147215;27;20042;-66
2022/09/11 01:05:33;;;;;;;44.40;31.58;;;;;;;;;;5148969;27;20135;-66
2022/09/11 01:08:01;;;;;;;43.35;31.33;;;;;;;;;;5149310;27;20061;-66
2022/09/11 01:10:45;;;;;;;43.47;30.67;;;;;;;;;;5147085;27;20486;-66
2022/09/11 01:13:30;;;;;;;45.72;31.58;;;;;;;;;;5133363;27;20048;-66
2022/09/11 01:16:03;;;;;;;46.15;29.80;;;;;;;;;;5129735;27;20107;-66
2022/09/11 01:18:32;;;;;;;46.55;30.95;;;;;;;;;;5149664;27;20046;-66
2022/09/11 01:21:24;;;;;;;38.47;30.08;;;;;;;;;;5147368;27;20382;-66
2022/09/11 01:24:20;;;;;;;39.85;29.75;;;;;;;;;;5099647;27;20111;-66
2022/09/11 01:27:05;;;;;;;44.42;32.10;;;;;;;;;;5107628;27;20175;-66
2022/09/11 01:29:38;;;;;;;41.92;30.52;;;;;;;;;;5141292;27;20055;-66
2022/09/11 01:32:10;;;;;;;42.10;31.00;;;;;;;;;;5145302;27;20099;-66
2022/09/11 01:34:39;;;;;;;39.03;28.92;;;;;;;;;;5148817;27;20054;-66
2022/09/11 01:37:12;;;;;;;41.13;29.92;;;;;;;;;;5149106;27;20043;-66
2022/09/11 01:39:42;;;;;;;40.35;29.40;;;;;;;;;;5136217;27;20054;-66
2022/09/11 01:42:13;;;;;;;42.10;29.52;;;;;;;;;;5135312;27;20050;-66
2022/09/11 01:44:42;;;;;;;40.03;29.60;;;;;;;;;;5149413;27;20046;-66
2022/09/11 01:47:10;;;;;;;40.20;28.98;;;;;;;;;;5147542;27;20062;-66
2022/09/11 01:49:56;;;;;;;40.92;29.88;;;;;;;;;;5149126;27;20054;-66
2022/09/11 01:52:26;;;;;;;41.47;28.60;;;;;;;;;;5123776;27;20047;-66
2022/09/11 01:55:16;;;;;;;42.90;29.92;;;;;;;;;;5129795;27;20043;-66
2022/09/11 01:57:47;;;;;;;42.08;30.63;;;;;;;;;;5136386;27;20062;-66
2022/09/11 02:00:14;;;;;;;42.30;31.45;;;;;;;;;;5145870;27;20152;-66
2022/09/11 02:02:51;;;;;;;44.28;31.90;;;;;;;;;;5114425;27;20070;-66
2022/09/11 02:05:17;;;;;;;;;;;;;;;;;;5148930;27;20174;-66
2022/09/11 02:07:47;;;;;;;42.00;29.95;;;;;;;;;;5149863;27;20018;-66
2022/09/11 02:10:16;;;;;;;41.75;31.25;;;;;;;;;;5134696;27;20414;-66
2022/09/11 02:12:58;;;;;;;39.75;30.05;;;;;;;;;;5129081;27;20402;-66
2022/09/11 02:15:30;;;;;;;40.38;29.83;;;;;;;;;;5147463;27;20182;-66
2022/09/11 02:18:10;;;;;;;38.13;28.58;;;;;;;;;;5148608;27;20122;-66
2022/09/11 02:20:37;;;;;;;41.08;30.05;;;;;;;;;;5146696;27;20113;-66
2022/09/11 02:23:03;;;;;;;;;;;;;;;;;;5148160;27;20084;-68
2022/09/11 02:25:29;;;;;;;36.60;28.00;;;;;;;;;;5146300;27;19946;-66
2022/09/11 02:27:55;;;;;;;39.67;27.70;;;;;;;;;;5145165;27;20066;-66
2022/09/11 02:30:21;;;;;;;37.42;28.17;;;;;;;;;;5148085;27;20091;-67
2022/09/11 02:32:47;;;;;;;36.90;27.67;;;;;;;;;;5149916;27;20043;-66
2022/09/11 02:35:15;;;;;;;40.20;29.38;;;;;;;;;;5144225;27;20130;-66
2022/09/11 02:37:53;;;;;;;38.45;28.55;;;;;;;;;;5149847;27;20050;-66
2022/09/11 02:40:37;;;;;;;38.47;28.60;;;;;;;;;;5129687;27;20062;-66
2022/09/11 02:43:42;;;;;;;38.55;27.52;;;;;;;;;;5149487;27;20078;-67
2022/09/11 02:46:08;;;;;;;37.67;28.42;;;;;;;;;;5040294;28;20555;-67
2022/09/11 02:48:52;;;;;;;41.20;29.67;;;;;;;;;;5044300;28;20539;-66
2022/09/11 02:51:24;;;;;;;36.17;29.40;;;;;;;;;;5093603;28;20065;-66
2022/09/11 02:54:05;;;;;;;37.72;28.35;;;;;;;;;;5121172;27;20074;-66
2022/09/11 02:56:46;;;;;;;38.53;30.30;;;;;;;;;;5149338;27;20042;-66
2022/09/11 02:59:23;;;;;;;39.65;30.00;;;;;;;;;;5152170;27;20094;-66
2022/09/11 03:01:53;;;;;;;36.47;27.00;;;;;;;;;;5129681;27;20059;-66
2022/09/11 03:04:21;;;;;;;44.70;29.50;;;;;;;;;;5148515;27;20123;-66
2022/09/11 03:06:48;;;;;;;38.15;28.60;;;;;;;;;;5146459;27;20150;-66
2022/09/11 03:09:15;;;;;;;39.70;28.92;;;;;;;;;;5150127;27;20396;-66
2022/09/11 03:11:42;;;;;;;37.92;28.17;;;;;;;;;;5151667;27;20042;-66
2022/09/11 03:14:08;;;;;;;39.38;28.15;;;;;;;;;;5148687;27;20050;-66
2022/09/11 03:16:37;;;;;;;37.63;29.40;;;;;;;;;;5123352;27;20459;-66
2022/09/11 03:19:03;;;;;;;;;;;;;;;;;;5153698;27;20205;-66
2022/09/11 03:21:29;;;;;;;37.85;28.17;;;;;;;;;;5149846;27;19931;-66
2022/09/11 03:23:56;;;;;;;34.38;26.40;;;;;;;;;;5150841;27;20190;-66
2022/09/11 03:26:23;;;;;;;37.85;26.85;;;;;;;;;;5112936;27;20102;-66
2022/09/11 03:28:52;;;;;;;40.63;27.45;;;;;;;;;;5151897;27;20479;-66
2022/09/11 03:31:19;;;;;;;35.47;25.90;;;;;;;;;;5149955;27;20043;-66
2022/09/11 03:33:45;;;;;;;34.13;26.52;;;;;;;;;;5132126;27;20057;-66
2022/09/11 03:36:11;;;;;;;;;;;;;;;;;;5132646;27;20059;-66
2022/09/11 03:38:37;;;;;;;36.67;26.38;;;;;;;;;;5151031;27;20010;-66
2022/09/11 03:41:04;;;;;;;35.97;27.27;;;;;;;;;;5150300;27;20061;-66
2022/09/11 03:43:30;;;;;;;37.35;25.38;;;;;;;;;;5152543;27;20138;-66
2022/09/11 03:45:57;;;;;;;33.95;25.55;;;;;;;;;;5150299;27;20038;-66
2022/09/11 03:48:24;;;;;;;35.05;25.48;;;;;;;;;;5151121;27;20046;-66
2022/09/11 03:50:50;;;;;;;35.35;25.25;;;;;;;;;;5147475;27;20043;-66
2022/09/11 03:53:16;;;;;;;;;;;;;;;;;;5153000;27;20046;-68
2022/09/11 03:55:44;;;;;;;33.30;25.85;;;;;;;;;;5131892;27;20526;-66
2022/09/11 03:58:10;;;;;;;36.30;27.15;;;;;;;;;;5150619;27;20370;-66
2022/09/11 04:00:40;;;;;;;33.00;23.63;;;;;;;;;;5145597;27;20066;-66
2022/09/11 04:03:06;;;;;;;35.83;26.27;;;;;;;;;;5152190;27;20046;-66
2022/09/11 04:05:32;;;;;;;32.90;25.05;;;;;;;;;;5147922;27;20075;-66
2022/09/11 04:07:58;;;;;;;36.78;25.30;;;;;;;;;;5149707;27;20050;-66
2022/09/11 04:10:24;;;;;;;31.63;24.40;;;;;;;;;;5148325;27;20039;-66
2022/09/11 04:12:50;;;;;;;29.80;23.90;;;;;;;;;;5134037;27;20403;-66
2022/09/11 04:15:17;;;;;;;34.78;24.40;;;;;;;;;;5131186;27;20493;-66
2022/09/11 04:17:44;;;;;;;30.02;23.20;;;;;;;;;;5128173;27;20065;-66
2022/09/11 04:20:10;;;;;;;34.67;24.05;;;;;;;;;;5148483;27;20103;-67
2022/09/11 04:22:37;;;;;;;;;;;;;;;;;;5145293;27;20122;-66
2022/09/11 04:25:03;;;;;;;30.63;22.33;;;;;;;;;;5151930;27;19971;-66
2022/09/11 04:27:29;;;;;;;28.27;22.70;;;;;;;;;;5149967;27;20043;-66
2022/09/11 04:29:55;;;;;;;31.45;23.55;;;;;;;;;;5131049;27;20061;-66
2022/09/11 04:32:21;;;;;;;30.23;23.05;;;;;;;;;;5123800;27;20038;-67
2022/09/11 04:34:47;;;;;;;31.85;24.45;;;;;;;;;;5127187;27;20043;-66
2022/09/11 04:37:14;;;;;;;32.75;23.35;;;;;;;;;;5150205;27;20130;-66
2022/09/11 04:39:40;;;;;;;30.70;22.77;;;;;;;;;;5149012;27;20505;-66
2022/09/11 04:42:07;;;;;;;32.58;24.65;;;;;;;;;;5147988;27;20061;-66
2022/09/11 04:44:33;;;;;;;;;;;;;;;;;;5149722;27;20401;-68
2022/09/11 04:46:59;;;;;;;32.15;23.58;;;;;;;;;;5149698;27;19923;-66
2022/09/11 04:49:25;;;;;;;;;;;;;;;;;;5149502;27;20042;-67
2022/09/11 04:51:51;;;;;;;30.75;24.10;;;;;;;;;;5147823;27;19941;-66
2022/09/11 04:54:22;;;;;;;32.45;24.58;;;;;;;;;;5149084;27;20042;-66
2022/09/11 04:56:48;;;;;;;34.40;25.50;;;;;;;;;;5148874;27;20053;-66
2022/09/11 04:59:17;;;;;;;30.63;23.52;;;;;;;;;;5150987;27;20489;-66
2022/09/11 05:01:43;;;;;;;27.55;22.20;;;;;;;;;;5146896;27;20068;-66
2022/09/11 05:04:11;;;;;;;30.58;23.45;;;;;;;;;;5148818;27;20046;-66
2022/09/11 05:06:38;;;;;;;27.88;22.35;;;;;;;;;;5149046;27;20137;-66
2022/09/11 05:09:05;;;;;;;30.02;22.55;;;;;;;;;;5150092;27;20098;-66
2022/09/11 05:11:31;;;;;;;31.58;24.40;;;;;;;;;;5131228;27;20043;-66
2022/09/11 05:14:00;;;;;;;27.38;21.58;;;;;;;;;;5147537;27;20058;-66
2022/09/11 05:16:27;;;;;;;27.95;21.58;;;;;;;;;;5145743;27;20042;-66
2022/09/11 05:18:54;;;;;;;31.13;22.85;;;;;;;;;;5131643;27;20043;-66
2022/09/11 05:21:24;;;;;;;32.47;23.73;;;;;;;;;;5111087;27;20039;-66
2022/09/11 05:23:51;;;;;;;27.33;21.90;;;;;;;;;;5138746;27;20126;-66
2022/09/11 05:26:24;;;;;;;27.35;22.15;;;;;;;;;;5148365;27;20038;-66
2022/09/11 05:28:59;;;;;;;29.88;22.25;;;;;;;;;;5148518;27;20247;-65
2022/09/11 05:31:25;;;;;;;31.15;22.95;;;;;;;;;;5150201;27;20042;-66
2022/09/11 05:33:54;;;;;;;26.08;21.73;;;;;;;;;;5145449;27;20168;-66
2022/09/11 05:36:20;;;;;;;27.13;21.10;;;;;;;;;;5147013;27;20061;-66
2022/09/11 05:38:46;;;;;;;27.30;20.67;;;;;;;;;;5128911;27;20374;-66
2022/09/11 05:41:13;;;;;;;26.67;21.48;;;;;;;;;;5150522;27;20128;-66
2022/09/11 05:43:40;;;;;;;26.17;20.55;;;;;;;;;;5141915;27;20046;-66
2022/09/11 05:46:07;;;;;;;25.27;20.60;;;;;;;;;;5147628;27;20046;-66
2022/09/11 05:48:37;;;;;;;24.05;19.27;;;;;;;;;;5141003;27;20047;-66
2022/09/11 05:51:13;;;;;;;31.20;21.30;;;;;;;;;;5147916;27;20122;-66
2022/09/11 05:53:40;;;;;;;27.70;21.75;;;;;;;;;;5138062;27;20043;-66
2022/09/11 05:56:06;;;;;;;;;;;;;;;;;;5139716;27;20051;-66
2022/09/11 05:58:32;;;;;;;25.45;20.75;;;;;;;;;;5121869;27;19919;-66
2022/09/11 06:01:07;;;;;;;24.75;20.65;;;;;;;;;;5147556;27;20126;-66
2022/09/11 06:03:34;;;;;;;24.30;19.42;;;;;;;;;;5142490;27;20469;-66
2022/09/11 06:06:01;;;;;;;24.90;20.33;;;;;;;;;;5095573;27;20063;-66
2022/09/11 06:08:27;;;;;;;25.08;20.15;;;;;;;;;;5136839;27;20151;-66
2022/09/11 06:10:57;;;;;;;25.85;19.92;;;;;;;;;;5129274;27;21383;-66
2022/09/11 06:13:29;;;;;;;27.17;20.02;;;;;;;;;;5146004;27;20221;-66
2022/09/11 06:15:55;;;;;;;29.02;20.75;;;;;;;;;;5146822;27;20110;-67
2022/09/11 06:18:21;;;;;;;26.58;20.58;;;;;;;;;;5144172;27;20038;-66
2022/09/11 06:21:07;;;;;;;25.85;20.30;;;;;;;;;;5146428;27;20062;-66
2022/09/11 06:23:33;;;;;;;26.75;20.52;;;;;;;;;;5148992;27;20042;-66
2022/09/11 06:26:07;;;;;;;25.67;19.98;;;;;;;;;;5141234;27;20549;-66
2022/09/11 06:28:35;;;;;;;24.13;19.33;;;;;;;;;;5139612;27;20062;-66
2022/09/11 06:31:07;;;;;;;26.38;19.67;;;;;;;;;;5149847;27;20157;-66
2022/09/11 06:33:37;;;;;;;28.52;21.02;;;;;;;;;;5146048;27;20055;-66
2022/09/11 06:36:04;;;;;;;26.15;21.08;;;;;;;;;;5139854;27;20045;-66
2022/09/11 06:38:31;;;;;;;25.77;20.35;;;;;;;;;;5131695;27;20443;-66
2022/09/11 06:40:58;;;;;;;27.10;19.95;;;;;;;;;;5141453;27;20051;-66
2022/09/11 06:43:24;;;;;;;24.17;19.30;;;;;;;;;;5144831;27;20051;-66
2022/09/11 06:45:51;;;;;;;27.05;20.48;;;;;;;;;;5148997;27;20431;-67
2022/09/11 06:48:18;;;;;;;27.52;20.17;;;;;;;;;;5140686;27;20166;-66
2022/09/11 06:50:44;;;;;;;28.02;19.60;;;;;;;;;;5121215;27;20118;-66
2022/09/11 06:53:10;;;;;;;25.27;19.35;;;;;;;;;;5153034;27;20429;-66
2022/09/11 06:55:39;;;;;;;24.73;19.25;;;;;;;;;;5153841;27;20047;-66
2022/09/11 06:58:05;;;;;;;25.48;19.90;;;;;;;;;;5139374;27;20039;-66
2022/09/11 07:00:31;;;;;;;25.23;20.15;;;;;;;;;;5137028;27;20106;-66
2022/09/11 07:02:57;;;;;;;24.58;19.30;;;;;;;;;;5127935;27;20327;-66
2022/09/11 07:05:26;;;;;;;29.15;20.08;;;;;;;;;;5151035;27;20460;-66
2022/09/11 07:07:54;;;;;;;23.40;18.77;;;;;;;;;;5150034;27;20427;-67
2022/09/11 07:10:20;;;;;;;26.90;19.40;;;;;;;;;;5118815;27;20366;-66
2022/09/11 07:12:46;;;;;;;;;;;;;;;;;;5146130;27;20107;-66
2022/09/11 07:15:12;;;;;;;23.33;18.45;;;;;;;;;;5150423;27;19920;-66
2022/09/11 07:17:38;;;;;;;23.40;19.00;;;;;;;;;;5150210;27;20062;-66
2022/09/11 07:20:05;;;;;;;25.10;19.50;;;;;;;;;;5136358;27;20122;-67
2022/09/11 07:22:33;;;;;;;26.02;19.25;;;;;;;;;;5137366;27;20114;-67
2022/09/11 07:24:59;;;;;;;23.05;18.27;;;;;;;;;;5142886;27;20091;-66
2022/09/11 07:27:26;;;;;;;24.55;19.65;;;;;;;;;;5125078;27;20055;-66
2022/09/11 07:29:51;;;;;;;;;;;;;;;;;;5149059;27;20065;-70
2022/09/11 07:32:18;;;;;;;28.13;20.30;;;;;;;;;;5145856;27;20003;-66
2022/09/11 07:34:46;;;;;;;25.73;19.52;;;;;;;;;;5144299;27;20382;-66
2022/09/11 07:37:12;;;;;;;23.42;19.10;;;;;;;;;;5143803;27;20509;-65
2022/09/11 07:39:38;;;;;;;;;;;;;;;;;;5121559;27;20066;-66
2022/09/11 07:42:06;;;;;;;26.40;20.17;;;;;;;;;;5137952;27;20246;-67
2022/09/11 07:44:32;;;;;;;27.77;18.30;;;;;;;;;;5139620;27;20392;-66
2022/09/11 07:46:59;;;;;;;;;;;;;;;;;;5136779;27;20038;-67
2022/09/11 07:49:26;;;;;;;25.38;17.98;;;;;;;;;;5140861;27;19919;-66
2022/09/11 07:51:53;;;;;;;24.48;17.88;;;;;;;;;;5138189;27;20065;-66
2022/09/11 07:54:19;;;;;;;23.85;17.73;;;;;;;;;;5142186;27;20127;-66
2022/09/11 07:56:45;;;;;;;22.10;15.48;;;;;;;;;;5120388;27;20474;-67
2022/09/11 07:59:11;;;;;;;22.38;15.32;;;;;;;;;;5138783;27;20039;-68
2022/09/11 08:01:37;;;;;;;21.02;13.02;;;;;;;;;;5137345;27;20069;-66
2022/09/11 08:04:07;;;;;;;16.67;9.75;;;;;;;;;;5140514;27;20106;-66
2022/09/11 08:06:34;;;;;;;23.88;13.77;;;;;;;;;;5138559;27;20130;-67
2022/09/11 08:09:01;;;;;;;18.10;11.57;;;;;;;;;;5136644;27;20038;-66
2022/09/11 08:11:28;;;;;;;20.92;9.90;;;;;;;;;;5145811;27;20047;-66
2022/09/11 08:13:55;;;;;;;15.48;9.48;;;;;;;;;;5146701;27;20046;-66
2022/09/11 08:16:23;;;;;;;19.08;9.63;;;;;;;;;;5129505;27;20133;-67
2022/09/11 08:18:50;;;;;;;15.05;9.50;;;;;;;;;;5129429;27;20382;-66
2022/09/11 08:21:17;;;;;;;15.75;8.25;;;;;;;;;;5144715;27;20050;-66
2022/09/11 08:23:43;;;;;;;;;;;;;;;;;;5148482;27;20038;-66
2022/09/11 08:26:10;;;;;;;17.10;8.45;;;;;;;;;;5142839;27;20343;-66
2022/09/11 08:28:37;;;;;;;17.75;9.02;;;;;;;;;;5093951;27;1494013;-67
2022/09/11 08:31:04;;;;;;;15.95;8.68;;;;;;;;;;5119891;27;20051;-67
2022/09/11 08:33:32;;;;;;;15.77;9.23;;;;;;;;;;5145794;27;20141;-67
2022/09/11 08:35:58;;;;;;;13.10;5.88;;;;;;;;;;5142531;27;20432;-66
2022/09/11 08:38:24;;;;;;;12.05;4.00;;;;;;;;;;5130286;27;20038;-67
2022/09/11 08:40:50;;;;;;;11.40;4.10;;;;;;;;;;5144691;27;20034;-67
2022/09/11 08:43:16;;;;;;;;;;;;;;;;;;5144638;27;20118;-67
2022/09/11 08:45:43;;;;;;;13.43;4.57;;;;;;;;;;5144289;27;19923;-68
2022/09/11 08:48:11;;;;;;;10.93;4.65;;;;;;;;;;5145963;27;20047;-67
2022/09/11 08:50:41;;;;;;;13.38;5.72;;;;;;;;;;5137523;27;20038;-67
2022/09/11 08:53:16;;;;;;;12.77;5.03;;;;;;;;;;5137467;27;20091;-67
2022/09/11 08:55:47;;;;;;;12.65;5.13;;;;;;;;;;5138621;27;20445;-67
2022/09/11 08:58:37;;;;;;;11.10;3.10;;;;;;;;;;5140836;27;20038;-67
2022/09/11 09:01:27;;;;;;;10.05;3.50;;;;;;;;;;5142711;27;20062;-67
2022/09/11 09:04:05;;;;;;;15.02;4.75;;;;;;;;;;5132267;27;20508;-66
2022/09/11 09:06:42;;;;;;;10.50;3.75;;;;;;;;;;5145567;27;20130;-66
2022/09/11 09:09:08;;;;;;;;;;;;;;;;;;5146871;27;20175;-71
2022/09/11 09:11:34;;;;;;;10.15;3.65;;;;;;;;;;5146891;27;20005;-67
2022/09/11 09:14:19;;;;;;;11.15;3.53;;;;;;;;;;5131281;27;20493;-67
2022/09/11 09:16:57;;;;;;;12.05;3.63;;;;;;;;;;5147675;27;20039;-67
2022/09/11 09:19:29;;;;;;;10.50;3.67;;;;;;;;;;5144827;27;20069;-64
2022/09/11 09:22:05;;;;;;;10.45;3.50;;;;;;;;;;5136124;27;20062;-63
2022/09/11 09:24:35;;;;;;;12.05;3.13;;;;;;;;;;5144623;27;20442;-70
2022/09/11 09:27:04;;;;;;;10.70;3.30;;;;;;;;;;5146426;27;20513;-70
2022/09/11 09:29:35;;;;;;;7.60;2.60;;;;;;;;;;5148187;27;20751;-84
2022/09/11 09:32:05;;;;;;;7.28;2.45;;;;;;;;;;5146278;27;20058;-79
2022/09/11 09:34:33;;;;;;;7.82;2.53;;;;;;;;;;5149168;27;20225;-78
2022/09/11 09:37:18;;;;;;;9.23;2.75;;;;;;;;;;5142531;27;20125;-79
2022/09/11 09:39:45;;;;;;;6.38;2.10;;;;;;;;;;5137537;27;20038;-79
2022/09/11 09:42:21;;;;;;;7.38;2.30;;;;;;;;;;5146199;27;20038;-77
2022/09/11 09:44:47;;;;;;;;;;;;;;;;;;5130279;27;20058;-79
2022/09/11 09:47:14;;;;;;;7.65;2.40;;;;;;;;;;5127604;27;19919;-76
2022/09/11 09:49:40;;;;;;;8.30;2.45;;;;;;;;;;5124143;27;20415;-76
2022/09/11 09:52:13;;;;;;;9.70;3.03;;;;;;;;;;5148288;27;20086;-76
2022/09/11 09:54:39;;;;;;;11.57;3.03;;;;;;;;;;5147729;27;20070;-74
2022/09/11 09:57:06;;;;;;;;;;;;;;;;;;5129110;27;20554;-78
2022/09/11 09:59:32;;;;;;;;;;;;;;;;;;5134922;27;19919;-77
2022/09/11 10:01:58;;;;;;;12.95;4.80;;;;;;;;;;5131695;27;20363;-68
2022/09/11 10:04:31;;;;;;;13.15;5.50;;;;;;;;;;5149151;27;20046;-68
2022/09/11 10:07:05;;;;;;;17.98;6.90;;;;;;;;;;5148985;27;20534;-65
2022/09/11 10:09:31;;;;;;;15.38;7.40;;;;;;;;;;5129584;27;20096;-64
2022/09/11 10:12:01;;;;;;;;;;;;;;;;;;5122101;27;20132;-64
2022/09/11 10:14:32;;;;;;;14.13;7.07;;;;;;;;;;5110674;28;19927;-63
2022/09/11 10:17:01;;;;;;;15.55;7.95;;;;;;;;;;5129435;28;20066;-64
2022/09/11 10:19:34;;;;;;;15.90;7.60;;;;;;;;;;5149287;27;20042;-63
2022/09/11 10:22:32;;;;;;;15.15;7.63;;;;;;;;;;5147134;27;20039;-63
2022/09/11 10:25:00;;;;;;;15.52;7.60;;;;;;;;;;5071526;28;20123;-63
2022/09/11 10:27:27;;;;;;;18.85;8.40;;;;;;;;;;5111385;27;20047;-63
2022/09/11 10:29:56;;;;;;;12.30;7.22;;;;;;;;;;5149730;27;20076;-63
2022/09/11 10:32:23;;;;;;;13.25;6.68;;;;;;;;;;5145161;27;20395;-63
2022/09/11 10:34:50;;;;;;;13.45;7.25;;;;;;;;;;5131281;27;20131;-64
2022/09/11 10:37:29;;;;;;;15.10;6.80;;;;;;;;;;5149701;27;20065;-63
2022/09/11 10:40:05;;;;;;;13.55;7.10;;;;;;;;;;5093892;28;20051;-64
2022/09/11 10:42:33;;;;;;;15.80;7.25;;;;;;;;;;5141040;27;20118;-65
2022/09/11 10:45:09;;;;;;;15.43;6.95;;;;;;;;;;5128991;28;20062;-64
2022/09/11 10:47:36;;;;;;;11.43;5.78;;;;;;;;;;5128525;27;20058;-65
2022/09/11 10:50:17;;;;;;;11.73;5.00;;;;;;;;;;5129556;27;20053;-65
2022/09/11 10:53:02;;;;;;;14.60;5.93;;;;;;;;;;5139870;27;20046;-65
2022/09/11 10:55:30;;;;;;;12.32;6.55;;;;;;;;;;5138601;27;20400;-63
2022/09/11 10:58:04;;;;;;;15.23;6.82;;;;;;;;;;5144886;27;20043;-65
2022/09/11 11:00:30;;;;;;;11.00;6.03;;;;;;;;;;5130261;27;20347;-65
2022/09/11 11:03:16;;;;;;;12.52;5.28;;;;;;;;;;5135327;27;20453;-65
2022/09/11 11:06:01;;;;;;;14.38;6.15;;;;;;;;;;5141032;27;20061;-65
2022/09/11 11:08:44;;;;;;;14.98;6.28;;;;;;;;;;5132390;27;20077;-65
2022/09/11 11:11:16;;;;;;;11.52;4.68;;;;;;;;;;5148970;27;20114;-65
2022/09/11 11:13:49;;;;;;;10.93;4.78;;;;;;;;;;5147115;27;20182;-65
2022/09/11 11:16:33;;;;;;;12.32;4.60;;;;;;;;;;5140415;27;20121;-65
2022/09/11 11:18:59;;;;;;;12.82;4.47;;;;;;;;;;5140515;27;20106;-79
2022/09/11 11:22:01;;;;;;;12.63;3.92;;;;;;;;;;5151695;27;20038;-75
2022/09/11 11:24:46;;;;;;;9.38;3.45;;;;;;;;;;5080417;28;20056;-78
2022/09/11 11:27:30;;;;;;;9.68;4.50;;;;;;;;;;5129186;27;20447;-79
2022/09/11 11:30:07;;;;;;;9.80;4.28;;;;;;;;;;5131728;27;20141;-79
2022/09/11 11:32:53;;;;;;;12.30;4.13;;;;;;;;;;5130919;27;20043;-79
2022/09/11 11:35:32;;;;;;;10.30;4.10;;;;;;;;;;5149056;27;20134;-78
2022/09/11 11:38:10;;;;;;;11.07;3.85;;;;;;;;;;5152154;27;20043;-78
2022/09/11 11:40:41;;;;;;;11.30;4.18;;;;;;;;;;5152289;27;20057;-79
2022/09/11 11:43:10;;;;;;;10.77;3.83;;;;;;;;;;5150095;27;20096;-79
2022/09/11 11:45:39;;;;;;;9.75;3.40;;;;;;;;;;5151814;27;20046;-79
2022/09/11 11:48:08;;;;;;;8.52;3.40;;;;;;;;;;5153555;27;20121;-81
2022/09/11 11:50:40;;;;;;;11.18;3.58;;;;;;;;;;5150295;27;20047;-78
2022/09/11 11:53:25;;;;;;;11.88;4.03;;;;;;;;;;5140188;27;20150;-79
2022/09/11 11:56:03;;;;;;;10.02;3.28;;;;;;;;;;5138823;27;20160;-79
2022/09/11 11:58:30;;;;;;;9.48;3.13;;;;;;;;;;5148003;27;20038;-80
2022/09/11 12:00:56;;;;;;;;;;;;;;;;;;5148611;27;20062;-78
2022/09/11 12:03:45;;;;;;;9.50;3.40;;;;;;;;;;5149508;27;19927;-78
2022/09/11 12:06:12;;;;;;;12.90;4.00;;;;;;;;;;5118122;27;20062;-78
2022/09/11 12:08:42;;;;;;;11.57;3.50;;;;;;;;;;5126159;27;20095;-78
2022/09/11 12:11:14;;;;;;;10.57;3.88;;;;;;;;;;5140483;27;20050;-77
2022/09/11 12:13:45;;;;;;;12.60;4.32;;;;;;;;;;5145669;27;20050;-78
2022/09/11 12:16:16;;;;;;;9.73;3.75;;;;;;;;;;5151626;27;20121;-76
2022/09/11 12:19:02;;;;;;;10.60;3.92;;;;;;;;;;5146178;27;20108;-78
2022/09/11 12:21:30;;;;;;;9.55;3.90;;;;;;;;;;5149938;27;20067;-78
2022/09/11 12:24:11;;;;;;;9.32;3.83;;;;;;;;;;5122171;27;20085;-78
2022/09/11 12:26:37;;;;;;;9.93;3.50;;;;;;;;;;5138776;27;20142;-78
2022/09/11 12:29:13;;;;;;;9.68;3.13;;;;;;;;;;5109202;27;20145;-78
2022/09/11 12:31:51;;;;;;;9.95;3.40;;;;;;;;;;5149858;27;20038;-67
2022/09/11 12:34:24;;;;;;;10.88;3.22;;;;;;;;;;5143411;27;20126;-67
2022/09/11 12:37:14;;;;;;;10.63;3.33;;;;;;;;;;5150760;27;20043;-67
2022/09/11 12:39:50;;;;;;;9.93;3.08;;;;;;;;;;5119657;27;20451;-68
2022/09/11 12:42:22;;;;;;;8.98;3.05;;;;;;;;;;5150132;27;20049;-67
2022/09/11 12:44:48;;;;;;;10.38;3.13;;;;;;;;;;5137738;27;20047;-67
2022/09/11 12:47:27;;;;;;;8.95;3.10;;;;;;;;;;5146724;27;20043;-67
2022/09/11 12:50:02;;;;;;;10.00;2.97;;;;;;;;;;5146665;27;20114;-68
2022/09/11 12:52:41;;;;;;;11.38;3.80;;;;;;;;;;5150671;27;20138;-66
2022/09/11 12:55:22;;;;;;;9.52;3.58;;;;;;;;;;5150059;27;20118;-68
2022/09/11 12:57:50;;;;;;;12.68;4.50;;;;;;;;;;5140362;27;20063;-68
2022/09/11 13:00:42;;;;;;;13.90;5.50;;;;;;;;;;5145443;27;20063;-67
2022/09/11 13:03:23;;;;;;;10.98;5.07;;;;;;;;;;5140578;27;20068;-67
2022/09/11 13:06:01;;;;;;;12.98;5.47;;;;;;;;;;5126102;27;20390;-67
2022/09/11 13:08:28;;;;;;;12.40;5.03;;;;;;;;;;5145367;27;20035;-65
2022/09/11 13:11:13;;;;;;;13.30;5.60;;;;;;;;;;5137522;27;20066;-68
2022/09/11 13:13:43;;;;;;;12.23;5.15;;;;;;;;;;5149703;27;20126;-67
2022/09/11 13:16:25;;;;;;;12.43;5.93;;;;;;;;;;5131428;27;20110;-67
2022/09/11 13:19:07;;;;;;;12.50;5.63;;;;;;;;;;5096425;27;20321;-67
2022/09/11 13:21:36;;;;;;;12.27;5.63;;;;;;;;;;5140665;27;20137;-67
2022/09/11 13:24:02;;;;;;;11.80;5.00;;;;;;;;;;5147665;27;20043;-68
2022/09/11 13:26:31;;;;;;;;;;;;;;;;;;5150446;27;20145;-68
2022/09/11 13:28:59;;;;;;;13.63;5.93;;;;;;;;;;5149277;27;20258;-67
2022/09/11 13:31:32;;;;;;;11.20;5.90;;;;;;;;;;5149815;27;20047;-67
2022/09/11 13:33:59;;;;;;;12.48;6.85;;;;;;;;;;5147985;27;20409;-68
2022/09/11 13:36:47;;;;;;;13.02;6.50;;;;;;;;;;5149502;27;20103;-67
2022/09/11 13:39:15;;;;;;;12.88;6.15;;;;;;;;;;5141545;27;20071;-67
2022/09/11 13:41:43;;;;;;;14.27;5.15;;;;;;;;;;5147729;27;20169;-64
2022/09/11 13:44:41;;;;;;;13.27;4.53;;;;;;;;;;5149055;27;21540;-66
2022/09/11 13:47:16;;;;;;;10.80;4.35;;;;;;;;;;5105283;27;20127;-66
2022/09/11 13:49:42;;;;;;;12.77;3.92;;;;;;;;;;5125920;27;20051;-66
2022/09/11 13:52:10;;;;;;;11.52;4.10;;;;;;;;;;5118570;27;20234;-65
2022/09/11 13:54:37;;;;;;;11.48;4.13;;;;;;;;;;5139630;27;20478;-70
2022/09/11 13:57:06;;;;;;;12.70;5.22;;;;;;;;;;5148060;27;20538;-69
2022/09/11 13:59:38;;;;;;;12.23;5.90;;;;;;;;;;5150762;27;20094;-67
2022/09/11 14:02:18;;;;;;;11.65;5.07;;;;;;;;;;5148483;27;20053;-67
2022/09/11 14:04:46;;;;;;;11.98;5.20;;;;;;;;;;5130264;27;20218;-63
2022/09/11 14:07:18;;;;;;;10.75;4.68;;;;;;;;;;5112958;27;20126;-64
2022/09/11 14:09:47;;;;;;;11.05;4.90;;;;;;;;;;5150124;27;20091;-65
2022/09/11 14:12:14;;;;;;;10.60;4.43;;;;;;;;;;5147333;27;20074;-65
2022/09/11 14:14:45;;;;;;;12.90;4.45;;;;;;;;;;5144814;27;20057;-67
2022/09/11 14:17:12;;;;;;;10.30;4.13;;;;;;;;;;5141730;27;20051;-68
2022/09/11 14:19:42;;;;;;;11.93;4.10;;;;;;;;;;5150050;27;20066;-68
2022/09/11 14:22:27;;;;;;;12.00;4.35;;;;;;;;;;5132135;27;20043;-68
2022/09/11 14:25:02;;;;;;;10.25;4.40;;;;;;;;;;5120591;27;20182;-69
2022/09/11 14:27:31;;;;;;;9.85;4.50;;;;;;;;;;5135888;27;20058;-68
2022/09/11 14:29:58;;;;;;;13.52;4.78;;;;;;;;;;5119280;27;20051;-68
2022/09/11 14:32:27;;;;;;;13.98;4.20;;;;;;;;;;5141440;27;20047;-67
2022/09/11 14:34:54;;;;;;;10.73;3.92;;;;;;;;;;5148889;27;20139;-68
2022/09/11 14:37:19;;;;;;;;;;;;;;;;;;5148531;27;20351;-67
2022/09/11 14:39:55;;;;;;;12.70;3.92;;;;;;;;;;5148162;27;19919;-68
2022/09/11 14:42:23;;;;;;;10.52;3.65;;;;;;;;;;5147619;27;20047;-69
2022/09/11 14:44:49;;;;;;;9.25;3.50;;;;;;;;;;5138795;27;20146;-68
2022/09/11 14:47:34;;;;;;;11.32;4.10;;;;;;;;;;5110872;27;20119;-70
2022/09/11 14:50:00;;;;;;;10.98;3.90;;;;;;;;;;5146059;27;20083;-72
2022/09/11 14:52:26;;;;;;;;;;;;;;;;;;5153800;27;20042;-68